sensor_id;sensor_type;location;lat;lon;timestamp;P1;durP1;ratioP1;P2;durP2;ratioP2
45114;SDS011;30877;43.706;10.780;2023-03-01T00:01:13;7.45;;;5.05;;
45114;SDS011;30877;43.706;10.780;2023-03-01T00:03:42;6.60;;;5.10;;
45114;SDS011;30877;43.706;10.780;2023-03-01T00:06:11;6.32;;;4.70;;
45114;SDS011;30877;43.706;10.780;2023-03-01T00:08:40;5.63;;;4.55;;
45114;SDS011;30877;43.706;10.780;2023-03-01T00:11:09;5.95;;;4.53;;
45114;SDS011;30877;43.706;10.780;2023-03-01T00:13:39;6.47;;;5.25;;
45114;SDS011;30877;43.706;10.780;2023-03-01T00:16:11;6.03;;;4.85;;
45114;SDS011;30877;43.706;10.780;2023-03-01T00:18:40;6.18;;;4.50;;
45114;SDS011;30877;43.706;10.780;2023-03-01T00:21:09;7.13;;;4.70;;
45114;SDS011;30877;43.706;10.780;2023-03-01T00:23:37;6.45;;;4.80;;
45114;SDS011;30877;43.706;10.780;2023-03-01T00:26:06;7.03;;;5.07;;
45114;SDS011;30877;43.706;10.780;2023-03-01T00:28:38;6.80;;;4.28;;
45114;SDS011;30877;43.706;10.780;2023-03-01T00:31:08;5.60;;;4.60;;
45114;SDS011;30877;43.706;10.780;2023-03-01T00:33:40;6.13;;;4.45;;
45114;SDS011;30877;43.706;10.780;2023-03-01T00:36:08;6.88;;;5.13;;
45114;SDS011;30877;43.706;10.780;2023-03-01T00:38:38;6.22;;;4.93;;
45114;SDS011;30877;43.706;10.780;2023-03-01T00:41:19;6.18;;;5.10;;
45114;SDS011;30877;43.706;10.780;2023-03-01T00:43:49;5.28;;;4.60;;
45114;SDS011;30877;43.706;10.780;2023-03-01T00:46:20;6.53;;;4.82;;
45114;SDS011;30877;43.706;10.780;2023-03-01T00:48:49;7.30;;;5.03;;
45114;SDS011;30877;43.706;10.780;2023-03-01T00:51:17;7.18;;;5.00;;
45114;SDS011;30877;43.706;10.780;2023-03-01T00:53:47;6.28;;;5.15;;
45114;SDS011;30877;43.706;10.780;2023-03-01T00:56:18;6.22;;;4.90;;
45114;SDS011;30877;43.706;10.780;2023-03-01T00:58:46;5.45;;;4.60;;
45114;SDS011;30877;43.706;10.780;2023-03-01T01:01:16;7.65;;;5.10;;
45114;SDS011;30877;43.706;10.780;2023-03-01T01:03:49;6.30;;;4.63;;
45114;SDS011;30877;43.706;10.780;2023-03-01T01:06:18;7.68;;;5.53;;
45114;SDS011;30877;43.706;10.780;2023-03-01T01:08:48;6.70;;;5.13;;
45114;SDS011;30877;43.706;10.780;2023-03-01T01:11:17;6.47;;;5.05;;
45114;SDS011;30877;43.706;10.780;2023-03-01T01:13:46;7.13;;;5.20;;
45114;SDS011;30877;43.706;10.780;2023-03-01T01:16:15;7.15;;;4.97;;
45114;SDS011;30877;43.706;10.780;2023-03-01T01:18:46;5.78;;;4.88;;
45114;SDS011;30877;43.706;10.780;2023-03-01T01:21:14;7.65;;;5.20;;
45114;SDS011;30877;43.706;10.780;2023-03-01T01:23:44;7.75;;;5.18;;
45114;SDS011;30877;43.706;10.780;2023-03-01T01:26:14;6.15;;;4.88;;
45114;SDS011;30877;43.706;10.780;2023-03-01T01:28:44;6.32;;;5.18;;
45114;SDS011;30877;43.706;10.780;2023-03-01T01:31:12;6.38;;;4.97;;
45114;SDS011;30877;43.706;10.780;2023-03-01T01:33:40;7.55;;;5.03;;
45114;SDS011;30877;43.706;10.780;2023-03-01T01:36:10;6.80;;;5.10;;
45114;SDS011;30877;43.706;10.780;2023-03-01T01:38:38;7.43;;;5.15;;
45114;SDS011;30877;43.706;10.780;2023-03-01T01:41:06;6.22;;;4.75;;
45114;SDS011;30877;43.706;10.780;2023-03-01T01:43:36;8.40;;;5.45;;
45114;SDS011;30877;43.706;10.780;2023-03-01T01:46:06;5.97;;;4.75;;
45114;SDS011;30877;43.706;10.780;2023-03-01T01:48:43;6.95;;;5.30;;
45114;SDS011;30877;43.706;10.780;2023-03-01T01:51:17;6.47;;;4.97;;
45114;SDS011;30877;43.706;10.780;2023-03-01T01:53:51;5.93;;;4.82;;
45114;SDS011;30877;43.706;10.780;2023-03-01T01:56:23;6.72;;;4.13;;
45114;SDS011;30877;43.706;10.780;2023-03-01T01:58:52;6.78;;;5.15;;
45114;SDS011;30877;43.706;10.780;2023-03-01T02:01:21;5.35;;;3.95;;
45114;SDS011;30877;43.706;10.780;2023-03-01T02:03:49;6.57;;;4.82;;
45114;SDS011;30877;43.706;10.780;2023-03-01T02:06:21;6.45;;;4.95;;
45114;SDS011;30877;43.706;10.780;2023-03-01T02:08:57;6.70;;;4.82;;
45114;SDS011;30877;43.706;10.780;2023-03-01T02:11:29;5.38;;;4.25;;
45114;SDS011;30877;43.706;10.780;2023-03-01T02:13:58;5.90;;;3.92;;
45114;SDS011;30877;43.706;10.780;2023-03-01T02:16:27;4.35;;;3.75;;
45114;SDS011;30877;43.706;10.780;2023-03-01T02:18:56;6.13;;;4.55;;
45114;SDS011;30877;43.706;10.780;2023-03-01T02:21:38;5.25;;;3.80;;
45114;SDS011;30877;43.706;10.780;2023-03-01T02:24:17;6.53;;;4.07;;
45114;SDS011;30877;43.706;10.780;2023-03-01T02:26:58;5.85;;;4.38;;
45114;SDS011;30877;43.706;10.780;2023-03-01T02:29:30;5.18;;;4.18;;
45114;SDS011;30877;43.706;10.780;2023-03-01T02:31:59;5.57;;;4.18;;
45114;SDS011;30877;43.706;10.780;2023-03-01T02:34:29;4.25;;;3.80;;
45114;SDS011;30877;43.706;10.780;2023-03-01T02:37:00;5.50;;;4.15;;
45114;SDS011;30877;43.706;10.780;2023-03-01T02:39:36;5.35;;;3.97;;
45114;SDS011;30877;43.706;10.780;2023-03-01T02:42:10;6.30;;;4.43;;
45114;SDS011;30877;43.706;10.780;2023-03-01T02:44:44;5.93;;;4.72;;
45114;SDS011;30877;43.706;10.780;2023-03-01T02:47:12;5.85;;;4.40;;
45114;SDS011;30877;43.706;10.780;2023-03-01T02:49:41;4.57;;;3.67;;
45114;SDS011;30877;43.706;10.780;2023-03-01T02:52:24;5.38;;;4.30;;
45114;SDS011;30877;43.706;10.780;2023-03-01T02:55:05;4.95;;;3.97;;
45114;SDS011;30877;43.706;10.780;2023-03-01T02:57:37;5.63;;;4.07;;
45114;SDS011;30877;43.706;10.780;2023-03-01T03:00:09;5.65;;;4.15;;
45114;SDS011;30877;43.706;10.780;2023-03-01T03:02:47;6.57;;;4.30;;
45114;SDS011;30877;43.706;10.780;2023-03-01T03:05:19;4.97;;;3.85;;
45114;SDS011;30877;43.706;10.780;2023-03-01T03:07:52;5.30;;;4.10;;
45114;SDS011;30877;43.706;10.780;2023-03-01T03:10:22;5.85;;;4.50;;
45114;SDS011;30877;43.706;10.780;2023-03-01T03:12:53;4.57;;;3.63;;
45114;SDS011;30877;43.706;10.780;2023-03-01T03:15:24;4.60;;;3.88;;
45114;SDS011;30877;43.706;10.780;2023-03-01T03:17:54;4.53;;;3.60;;
45114;SDS011;30877;43.706;10.780;2023-03-01T03:20:25;4.72;;;3.95;;
45114;SDS011;30877;43.706;10.780;2023-03-01T03:22:55;4.97;;;3.63;;
45114;SDS011;30877;43.706;10.780;2023-03-01T03:25:26;4.43;;;3.45;;
45114;SDS011;30877;43.706;10.780;2023-03-01T03:27:56;4.05;;;3.15;;
45114;SDS011;30877;43.706;10.780;2023-03-01T03:30:27;4.10;;;3.42;;
45114;SDS011;30877;43.706;10.780;2023-03-01T03:32:57;3.40;;;2.78;;
45114;SDS011;30877;43.706;10.780;2023-03-01T03:35:27;2.97;;;2.63;;
45114;SDS011;30877;43.706;10.780;2023-03-01T03:37:59;3.08;;;2.72;;
45114;SDS011;30877;43.706;10.780;2023-03-01T03:40:31;4.47;;;3.38;;
45114;SDS011;30877;43.706;10.780;2023-03-01T03:43:01;3.72;;;3.15;;
45114;SDS011;30877;43.706;10.780;2023-03-01T03:45:32;5.85;;;3.60;;
45114;SDS011;30877;43.706;10.780;2023-03-01T03:48:03;3.85;;;2.80;;
45114;SDS011;30877;43.706;10.780;2023-03-01T03:50:32;3.30;;;2.75;;
45114;SDS011;30877;43.706;10.780;2023-03-01T03:53:02;3.97;;;3.00;;
45114;SDS011;30877;43.706;10.780;2023-03-01T03:55:32;3.72;;;2.80;;
45114;SDS011;30877;43.706;10.780;2023-03-01T03:58:01;4.07;;;3.15;;
45114;SDS011;30877;43.706;10.780;2023-03-01T04:00:36;3.15;;;2.55;;
45114;SDS011;30877;43.706;10.780;2023-03-01T04:03:05;4.05;;;2.97;;
45114;SDS011;30877;43.706;10.780;2023-03-01T04:05:34;3.83;;;2.85;;
45114;SDS011;30877;43.706;10.780;2023-03-01T04:08:03;3.13;;;2.60;;
45114;SDS011;30877;43.706;10.780;2023-03-01T04:10:35;4.15;;;2.70;;
45114;SDS011;30877;43.706;10.780;2023-03-01T04:13:05;3.45;;;2.58;;
45114;SDS011;30877;43.706;10.780;2023-03-01T04:15:35;3.00;;;2.53;;
45114;SDS011;30877;43.706;10.780;2023-03-01T04:18:04;3.20;;;2.17;;
45114;SDS011;30877;43.706;10.780;2023-03-01T04:20:33;3.33;;;1.80;;
45114;SDS011;30877;43.706;10.780;2023-03-01T04:23:03;2.20;;;1.83;;
45114;SDS011;30877;43.706;10.780;2023-03-01T04:25:41;2.38;;;1.70;;
45114;SDS011;30877;43.706;10.780;2023-03-01T04:28:12;2.60;;;2.05;;
45114;SDS011;30877;43.706;10.780;2023-03-01T04:30:42;2.25;;;1.90;;
45114;SDS011;30877;43.706;10.780;2023-03-01T04:33:10;3.15;;;1.85;;
45114;SDS011;30877;43.706;10.780;2023-03-01T04:35:39;3.00;;;1.88;;
45114;SDS011;30877;43.706;10.780;2023-03-01T04:38:08;2.08;;;1.73;;
45114;SDS011;30877;43.706;10.780;2023-03-01T04:40:36;2.60;;;1.52;;
45114;SDS011;30877;43.706;10.780;2023-03-01T04:43:04;1.92;;;1.70;;
45114;SDS011;30877;43.706;10.780;2023-03-01T04:45:33;2.17;;;1.38;;
45114;SDS011;30877;43.706;10.780;2023-03-01T04:48:03;2.10;;;1.60;;
45114;SDS011;30877;43.706;10.780;2023-03-01T04:50:32;2.15;;;1.40;;
45114;SDS011;30877;43.706;10.780;2023-03-01T04:53:00;2.58;;;1.13;;
45114;SDS011;30877;43.706;10.780;2023-03-01T04:55:28;1.70;;;1.27;;
45114;SDS011;30877;43.706;10.780;2023-03-01T04:57:57;1.83;;;1.30;;
45114;SDS011;30877;43.706;10.780;2023-03-01T05:00:25;1.40;;;1.08;;
45114;SDS011;30877;43.706;10.780;2023-03-01T05:02:54;1.88;;;1.30;;
45114;SDS011;30877;43.706;10.780;2023-03-01T05:05:26;1.33;;;1.10;;
45114;SDS011;30877;43.706;10.780;2023-03-01T05:07:55;2.13;;;1.10;;
45114;SDS011;30877;43.706;10.780;2023-03-01T05:10:25;1.77;;;1.05;;
45114;SDS011;30877;43.706;10.780;2023-03-01T05:12:56;1.27;;;1.08;;
45114;SDS011;30877;43.706;10.780;2023-03-01T05:15:25;1.40;;;1.05;;
45114;SDS011;30877;43.706;10.780;2023-03-01T05:17:55;1.40;;;0.88;;
45114;SDS011;30877;43.706;10.780;2023-03-01T05:20:29;1.10;;;0.88;;
45114;SDS011;30877;43.706;10.780;2023-03-01T05:22:59;1.63;;;0.98;;
45114;SDS011;30877;43.706;10.780;2023-03-01T05:25:32;1.10;;;0.77;;
45114;SDS011;30877;43.706;10.780;2023-03-01T05:28:01;1.58;;;1.08;;
45114;SDS011;30877;43.706;10.780;2023-03-01T05:30:31;1.70;;;1.10;;
45114;SDS011;30877;43.706;10.780;2023-03-01T05:33:00;1.65;;;0.90;;
45114;SDS011;30877;43.706;10.780;2023-03-01T05:35:32;1.50;;;0.90;;
45114;SDS011;30877;43.706;10.780;2023-03-01T05:38:00;1.70;;;1.17;;
45114;SDS011;30877;43.706;10.780;2023-03-01T05:40:29;1.48;;;1.08;;
45114;SDS011;30877;43.706;10.780;2023-03-01T05:42:57;1.35;;;0.85;;
45114;SDS011;30877;43.706;10.780;2023-03-01T05:45:25;1.73;;;0.90;;
45114;SDS011;30877;43.706;10.780;2023-03-01T05:47:54;1.23;;;1.00;;
45114;SDS011;30877;43.706;10.780;2023-03-01T05:50:23;1.20;;;0.90;;
45114;SDS011;30877;43.706;10.780;2023-03-01T05:52:57;1.30;;;1.00;;
45114;SDS011;30877;43.706;10.780;2023-03-01T05:55:27;2.00;;;1.27;;
45114;SDS011;30877;43.706;10.780;2023-03-01T05:57:57;1.80;;;1.10;;
45114;SDS011;30877;43.706;10.780;2023-03-01T06:00:27;1.70;;;1.20;;
45114;SDS011;30877;43.706;10.780;2023-03-01T06:02:57;2.85;;;1.60;;
45114;SDS011;30877;43.706;10.780;2023-03-01T06:05:25;2.33;;;1.60;;
45114;SDS011;30877;43.706;10.780;2023-03-01T06:07:56;1.60;;;1.10;;
45114;SDS011;30877;43.706;10.780;2023-03-01T06:10:26;1.67;;;1.33;;
45114;SDS011;30877;43.706;10.780;2023-03-01T06:12:54;2.78;;;1.13;;
45114;SDS011;30877;43.706;10.780;2023-03-01T06:15:23;1.50;;;1.30;;
45114;SDS011;30877;43.706;10.780;2023-03-01T06:17:53;1.55;;;1.10;;
45114;SDS011;30877;43.706;10.780;2023-03-01T06:20:26;2.22;;;1.33;;
45114;SDS011;30877;43.706;10.780;2023-03-01T06:22:56;1.75;;;1.35;;
45114;SDS011;30877;43.706;10.780;2023-03-01T06:25:31;1.52;;;1.10;;
45114;SDS011;30877;43.706;10.780;2023-03-01T06:27:59;3.10;;;1.60;;
45114;SDS011;30877;43.706;10.780;2023-03-01T06:30:27;1.83;;;1.20;;
45114;SDS011;30877;43.706;10.780;2023-03-01T06:32:56;1.77;;;1.38;;
45114;SDS011;30877;43.706;10.780;2023-03-01T06:35:27;2.38;;;1.33;;
45114;SDS011;30877;43.706;10.780;2023-03-01T06:38:00;2.28;;;1.40;;
45114;SDS011;30877;43.706;10.780;2023-03-01T06:40:30;2.13;;;1.38;;
45114;SDS011;30877;43.706;10.780;2023-03-01T06:42:58;2.92;;;2.10;;
45114;SDS011;30877;43.706;10.780;2023-03-01T06:45:27;8.40;;;4.43;;
45114;SDS011;30877;43.706;10.780;2023-03-01T06:48:02;2.90;;;2.30;;
45114;SDS011;30877;43.706;10.780;2023-03-01T06:50:31;2.87;;;2.07;;
45114;SDS011;30877;43.706;10.780;2023-03-01T06:53:01;2.40;;;1.70;;
45114;SDS011;30877;43.706;10.780;2023-03-01T06:55:30;1.52;;;1.40;;
45114;SDS011;30877;43.706;10.780;2023-03-01T06:57:59;2.53;;;1.80;;
45114;SDS011;30877;43.706;10.780;2023-03-01T07:00:28;1.95;;;1.40;;
45114;SDS011;30877;43.706;10.780;2023-03-01T07:02:58;2.30;;;1.60;;
45114;SDS011;30877;43.706;10.780;2023-03-01T07:05:27;2.33;;;1.75;;
45114;SDS011;30877;43.706;10.780;2023-03-01T07:07:55;2.53;;;1.58;;
45114;SDS011;30877;43.706;10.780;2023-03-01T07:10:25;1.75;;;1.60;;
45114;SDS011;30877;43.706;10.780;2023-03-01T07:12:54;2.95;;;1.73;;
45114;SDS011;30877;43.706;10.780;2023-03-01T07:15:22;1.80;;;1.55;;
45114;SDS011;30877;43.706;10.780;2023-03-01T07:17:51;2.38;;;1.58;;
45114;SDS011;30877;43.706;10.780;2023-03-01T07:20:19;2.25;;;1.70;;
45114;SDS011;30877;43.706;10.780;2023-03-01T07:22:52;4.15;;;1.95;;
45114;SDS011;30877;43.706;10.780;2023-03-01T07:25:21;2.80;;;1.70;;
45114;SDS011;30877;43.706;10.780;2023-03-01T07:27:51;2.22;;;1.73;;
45114;SDS011;30877;43.706;10.780;2023-03-01T07:30:19;2.50;;;2.00;;
45114;SDS011;30877;43.706;10.780;2023-03-01T07:32:48;3.13;;;2.40;;
45114;SDS011;30877;43.706;10.780;2023-03-01T07:35:16;4.70;;;2.40;;
45114;SDS011;30877;43.706;10.780;2023-03-01T07:37:44;3.60;;;2.40;;
45114;SDS011;30877;43.706;10.780;2023-03-01T07:40:12;4.53;;;2.42;;
45114;SDS011;30877;43.706;10.780;2023-03-01T07:42:41;4.13;;;2.53;;
45114;SDS011;30877;43.706;10.780;2023-03-01T07:45:10;2.95;;;2.40;;
45114;SDS011;30877;43.706;10.780;2023-03-01T07:47:40;3.05;;;2.60;;
45114;SDS011;30877;43.706;10.780;2023-03-01T07:50:09;3.17;;;2.50;;
45114;SDS011;30877;43.706;10.780;2023-03-01T07:52:38;4.03;;;3.05;;
45114;SDS011;30877;43.706;10.780;2023-03-01T07:55:07;3.13;;;2.80;;
45114;SDS011;30877;43.706;10.780;2023-03-01T07:57:35;3.78;;;2.53;;
45114;SDS011;30877;43.706;10.780;2023-03-01T08:00:04;4.32;;;2.70;;
45114;SDS011;30877;43.706;10.780;2023-03-01T08:02:38;2.55;;;2.08;;
45114;SDS011;30877;43.706;10.780;2023-03-01T08:05:08;4.78;;;2.78;;
45114;SDS011;30877;43.706;10.780;2023-03-01T08:07:37;3.15;;;2.70;;
45114;SDS011;30877;43.706;10.780;2023-03-01T08:10:05;3.15;;;2.33;;
45114;SDS011;30877;43.706;10.780;2023-03-01T08:12:34;3.08;;;2.42;;
45114;SDS011;30877;43.706;10.780;2023-03-01T08:15:09;2.92;;;2.50;;
45114;SDS011;30877;43.706;10.780;2023-03-01T08:17:39;4.65;;;2.63;;
45114;SDS011;30877;43.706;10.780;2023-03-01T08:20:08;3.40;;;2.38;;
45114;SDS011;30877;43.706;10.780;2023-03-01T08:22:39;4.05;;;3.00;;
45114;SDS011;30877;43.706;10.780;2023-03-01T08:25:07;3.70;;;2.90;;
45114;SDS011;30877;43.706;10.780;2023-03-01T08:27:36;3.53;;;2.83;;
45114;SDS011;30877;43.706;10.780;2023-03-01T08:30:05;3.97;;;2.78;;
45114;SDS011;30877;43.706;10.780;2023-03-01T08:32:39;4.10;;;3.20;;
45114;SDS011;30877;43.706;10.780;2023-03-01T08:35:07;4.57;;;3.53;;
45114;SDS011;30877;43.706;10.780;2023-03-01T08:37:35;4.75;;;3.65;;
45114;SDS011;30877;43.706;10.780;2023-03-01T08:40:04;3.88;;;2.92;;
45114;SDS011;30877;43.706;10.780;2023-03-01T08:42:34;3.17;;;2.67;;
45114;SDS011;30877;43.706;10.780;2023-03-01T08:45:02;4.18;;;3.20;;
45114;SDS011;30877;43.706;10.780;2023-03-01T08:47:30;4.00;;;2.65;;
45114;SDS011;30877;43.706;10.780;2023-03-01T08:50:02;4.03;;;3.20;;
45114;SDS011;30877;43.706;10.780;2023-03-01T08:52:31;3.75;;;2.72;;
45114;SDS011;30877;43.706;10.780;2023-03-01T08:58:00;3.40;;;2.80;;
45114;SDS011;30877;43.706;10.780;2023-03-01T09:00:28;4.30;;;3.13;;
45114;SDS011;30877;43.706;10.780;2023-03-01T09:02:56;5.07;;;3.45;;
45114;SDS011;30877;43.706;10.780;2023-03-01T09:05:25;6.60;;;4.80;;
45114;SDS011;30877;43.706;10.780;2023-03-01T09:07:54;4.85;;;3.42;;
45114;SDS011;30877;43.706;10.780;2023-03-01T09:10:24;5.65;;;4.05;;
45114;SDS011;30877;43.706;10.780;2023-03-01T09:12:52;7.85;;;4.38;;
45114;SDS011;30877;43.706;10.780;2023-03-01T09:15:20;5.05;;;3.50;;
45114;SDS011;30877;43.706;10.780;2023-03-01T09:17:47;4.07;;;2.88;;
45114;SDS011;30877;43.706;10.780;2023-03-01T09:20:19;3.67;;;2.58;;
45114;SDS011;30877;43.706;10.780;2023-03-01T09:22:48;4.43;;;2.30;;
45114;SDS011;30877;43.706;10.780;2023-03-01T09:25:17;3.03;;;2.20;;
45114;SDS011;30877;43.706;10.780;2023-03-01T09:27:45;2.47;;;1.63;;
45114;SDS011;30877;43.706;10.780;2023-03-01T09:30:14;6.43;;;2.67;;
45114;SDS011;30877;43.706;10.780;2023-03-01T09:32:42;2.60;;;1.35;;
45114;SDS011;30877;43.706;10.780;2023-03-01T09:35:11;2.28;;;1.65;;
45114;SDS011;30877;43.706;10.780;2023-03-01T09:37:39;1.88;;;1.42;;
45114;SDS011;30877;43.706;10.780;2023-03-01T09:40:14;1.40;;;1.00;;
45114;SDS011;30877;43.706;10.780;2023-03-01T09:42:48;2.70;;;1.20;;
45114;SDS011;30877;43.706;10.780;2023-03-01T09:45:34;1.20;;;0.82;;
45114;SDS011;30877;43.706;10.780;2023-03-01T09:48:05;2.30;;;1.33;;
45114;SDS011;30877;43.706;10.780;2023-03-01T09:50:39;1.42;;;1.00;;
45114;SDS011;30877;43.706;10.780;2023-03-01T09:53:11;3.08;;;1.50;;
45114;SDS011;30877;43.706;10.780;2023-03-01T09:55:45;1.42;;;1.17;;
45114;SDS011;30877;43.706;10.780;2023-03-01T09:58:25;1.85;;;1.30;;
45114;SDS011;30877;43.706;10.780;2023-03-01T10:01:02;1.42;;;1.17;;
45114;SDS011;30877;43.706;10.780;2023-03-01T10:03:39;3.05;;;2.28;;
45114;SDS011;30877;43.706;10.780;2023-03-01T10:06:11;3.55;;;2.20;;
45114;SDS011;30877;43.706;10.780;2023-03-01T10:08:58;3.97;;;2.40;;
45114;SDS011;30877;43.706;10.780;2023-03-01T10:11:35;4.22;;;2.60;;
45114;SDS011;30877;43.706;10.780;2023-03-01T10:14:09;3.92;;;2.60;;
45114;SDS011;30877;43.706;10.780;2023-03-01T10:16:47;2.65;;;2.00;;
45114;SDS011;30877;43.706;10.780;2023-03-01T10:19:20;3.60;;;2.30;;
45114;SDS011;30877;43.706;10.780;2023-03-01T10:21:51;3.08;;;1.80;;
45114;SDS011;30877;43.706;10.780;2023-03-01T10:24:20;2.85;;;2.17;;
45114;SDS011;30877;43.706;10.780;2023-03-01T10:26:52;2.42;;;1.73;;
45114;SDS011;30877;43.706;10.780;2023-03-01T10:29:24;3.08;;;1.88;;
45114;SDS011;30877;43.706;10.780;2023-03-01T10:31:56;2.58;;;1.70;;
45114;SDS011;30877;43.706;10.780;2023-03-01T10:34:27;3.33;;;2.00;;
45114;SDS011;30877;43.706;10.780;2023-03-01T10:36:57;2.20;;;1.75;;
45114;SDS011;30877;43.706;10.780;2023-03-01T10:39:57;1.95;;;1.60;;
45114;SDS011;30877;43.706;10.780;2023-03-01T10:42:29;2.90;;;1.63;;
45114;SDS011;30877;43.706;10.780;2023-03-01T10:45:02;2.35;;;1.70;;
45114;SDS011;30877;43.706;10.780;2023-03-01T10:47:44;2.22;;;1.42;;
45114;SDS011;30877;43.706;10.780;2023-03-01T10:50:22;1.52;;;1.13;;
45114;SDS011;30877;43.706;10.780;2023-03-01T10:52:57;1.63;;;1.30;;
45114;SDS011;30877;43.706;10.780;2023-03-01T10:55:27;1.90;;;1.30;;
45114;SDS011;30877;43.706;10.780;2023-03-01T10:58:07;2.70;;;1.60;;
45114;SDS011;30877;43.706;10.780;2023-03-01T11:00:45;2.80;;;1.77;;
45114;SDS011;30877;43.706;10.780;2023-03-01T11:03:16;1.98;;;1.40;;
45114;SDS011;30877;43.706;10.780;2023-03-01T11:05:56;3.20;;;1.60;;
45114;SDS011;30877;43.706;10.780;2023-03-01T11:08:38;1.92;;;1.20;;
45114;SDS011;30877;43.706;10.780;2023-03-01T11:11:13;1.75;;;1.35;;
45114;SDS011;30877;43.706;10.780;2023-03-01T11:13:54;1.50;;;1.10;;
45114;SDS011;30877;43.706;10.780;2023-03-01T11:16:25;1.58;;;1.15;;
45114;SDS011;30877;43.706;10.780;2023-03-01T11:18:56;3.30;;;1.38;;
45114;SDS011;30877;43.706;10.780;2023-03-01T11:21:25;1.52;;;1.08;;
45114;SDS011;30877;43.706;10.780;2023-03-01T11:23:56;1.67;;;1.40;;
45114;SDS011;30877;43.706;10.780;2023-03-01T11:26:27;2.53;;;1.67;;
45114;SDS011;30877;43.706;10.780;2023-03-01T11:29:00;1.77;;;1.25;;
45114;SDS011;30877;43.706;10.780;2023-03-01T11:31:32;2.67;;;1.48;;
45114;SDS011;30877;43.706;10.780;2023-03-01T11:34:04;1.60;;;1.20;;
45114;SDS011;30877;43.706;10.780;2023-03-01T11:36:40;1.95;;;0.98;;
45114;SDS011;30877;43.706;10.780;2023-03-01T11:39:16;1.58;;;1.20;;
45114;SDS011;30877;43.706;10.780;2023-03-01T11:41:52;1.65;;;1.23;;
45114;SDS011;30877;43.706;10.780;2023-03-01T11:44:45;1.70;;;1.20;;
45114;SDS011;30877;43.706;10.780;2023-03-01T11:47:28;2.25;;;1.80;;
45114;SDS011;30877;43.706;10.780;2023-03-01T11:50:15;2.03;;;1.50;;
45114;SDS011;30877;43.706;10.780;2023-03-01T11:52:56;1.60;;;1.33;;
45114;SDS011;30877;43.706;10.780;2023-03-01T11:55:46;1.88;;;1.50;;
45114;SDS011;30877;43.706;10.780;2023-03-01T11:58:40;2.80;;;1.30;;
45114;SDS011;30877;43.706;10.780;2023-03-01T12:01:26;2.05;;;1.70;;
45114;SDS011;30877;43.706;10.780;2023-03-01T12:04:13;1.83;;;1.50;;
45114;SDS011;30877;43.706;10.780;2023-03-01T12:06:57;1.95;;;1.58;;
45114;SDS011;30877;43.706;10.780;2023-03-01T12:09:31;1.83;;;1.55;;
45114;SDS011;30877;43.706;10.780;2023-03-01T12:15:01;3.10;;;1.85;;
45114;SDS011;30877;43.706;10.780;2023-03-01T12:18:02;3.80;;;2.10;;
45114;SDS011;30877;43.706;10.780;2023-03-01T12:20:51;2.20;;;1.90;;
45114;SDS011;30877;43.706;10.780;2023-03-01T12:23:48;2.72;;;1.73;;
45114;SDS011;30877;43.706;10.780;2023-03-01T12:26:30;2.30;;;1.70;;
45114;SDS011;30877;43.706;10.780;2023-03-01T12:29:02;3.35;;;2.10;;
45114;SDS011;30877;43.706;10.780;2023-03-01T12:31:49;1.83;;;1.42;;
45114;SDS011;30877;43.706;10.780;2023-03-01T12:34:50;3.42;;;2.05;;
45114;SDS011;30877;43.706;10.780;2023-03-01T12:37:31;2.00;;;1.67;;
45114;SDS011;30877;43.706;10.780;2023-03-01T12:40:31;4.38;;;3.10;;
45114;SDS011;30877;43.706;10.780;2023-03-01T12:43:11;2.97;;;2.40;;
45114;SDS011;30877;43.706;10.780;2023-03-01T12:45:55;2.85;;;2.30;;
45114;SDS011;30877;43.706;10.780;2023-03-01T12:48:39;2.42;;;2.17;;
45114;SDS011;30877;43.706;10.780;2023-03-01T12:51:16;2.72;;;1.88;;
45114;SDS011;30877;43.706;10.780;2023-03-01T12:53:48;1.75;;;1.50;;
45114;SDS011;30877;43.706;10.780;2023-03-01T12:56:18;1.30;;;0.90;;
45114;SDS011;30877;43.706;10.780;2023-03-01T12:58:51;2.00;;;1.42;;
45114;SDS011;30877;43.706;10.780;2023-03-01T13:01:30;2.00;;;1.35;;
45114;SDS011;30877;43.706;10.780;2023-03-01T13:04:08;2.15;;;1.20;;
45114;SDS011;30877;43.706;10.780;2023-03-01T13:06:50;1.48;;;1.02;;
45114;SDS011;30877;43.706;10.780;2023-03-01T13:09:28;2.03;;;1.70;;
45114;SDS011;30877;43.706;10.780;2023-03-01T13:14:36;1.52;;;1.30;;
45114;SDS011;30877;43.706;10.780;2023-03-01T13:17:29;1.83;;;1.33;;
45114;SDS011;30877;43.706;10.780;2023-03-01T13:20:12;1.42;;;1.15;;
45114;SDS011;30877;43.706;10.780;2023-03-01T13:22:43;2.80;;;1.40;;
45114;SDS011;30877;43.706;10.780;2023-03-01T13:25:20;2.55;;;1.23;;
45114;SDS011;30877;43.706;10.780;2023-03-01T13:31:05;1.48;;;1.00;;
45114;SDS011;30877;43.706;10.780;2023-03-01T13:33:37;1.42;;;1.02;;
45114;SDS011;30877;43.706;10.780;2023-03-01T13:36:08;1.80;;;1.20;;
45114;SDS011;30877;43.706;10.780;2023-03-01T13:38:46;2.08;;;1.55;;
45114;SDS011;30877;43.706;10.780;2023-03-01T13:41:16;3.15;;;1.98;;
45114;SDS011;30877;43.706;10.780;2023-03-01T13:44:11;2.10;;;1.48;;
45114;SDS011;30877;43.706;10.780;2023-03-01T13:46:40;2.00;;;1.50;;
45114;SDS011;30877;43.706;10.780;2023-03-01T13:49:11;2.17;;;1.40;;
45114;SDS011;30877;43.706;10.780;2023-03-01T13:51:52;2.58;;;1.67;;
45114;SDS011;30877;43.706;10.780;2023-03-01T13:54:24;2.00;;;1.60;;
45114;SDS011;30877;43.706;10.780;2023-03-01T13:56:56;2.35;;;1.92;;
45114;SDS011;30877;43.706;10.780;2023-03-01T13:59:27;2.75;;;1.92;;
45114;SDS011;30877;43.706;10.780;2023-03-01T14:01:57;2.63;;;1.90;;
45114;SDS011;30877;43.706;10.780;2023-03-01T14:04:27;3.10;;;2.05;;
45114;SDS011;30877;43.706;10.780;2023-03-01T14:09:48;3.10;;;2.25;;
45114;SDS011;30877;43.706;10.780;2023-03-01T14:12:25;3.30;;;2.55;;
45114;SDS011;30877;43.706;10.780;2023-03-01T14:15:01;3.17;;;2.30;;
45114;SDS011;30877;43.706;10.780;2023-03-01T14:17:39;4.22;;;3.28;;
45114;SDS011;30877;43.706;10.780;2023-03-01T14:20:17;5.15;;;3.53;;
45114;SDS011;30877;43.706;10.780;2023-03-01T14:22:47;3.05;;;2.30;;
45114;SDS011;30877;43.706;10.780;2023-03-01T14:25:23;4.65;;;3.15;;
45114;SDS011;30877;43.706;10.780;2023-03-01T14:27:58;4.47;;;2.78;;
45114;SDS011;30877;43.706;10.780;2023-03-01T14:30:33;2.85;;;2.10;;
45114;SDS011;30877;43.706;10.780;2023-03-01T14:33:05;3.15;;;2.08;;
45114;SDS011;30877;43.706;10.780;2023-03-01T14:35:51;3.55;;;2.08;;
45114;SDS011;30877;43.706;10.780;2023-03-01T14:38:22;4.15;;;2.05;;
45114;SDS011;30877;43.706;10.780;2023-03-01T14:40:53;14.95;;;8.73;;
45114;SDS011;30877;43.706;10.780;2023-03-01T14:43:24;3.80;;;2.00;;
45114;SDS011;30877;43.706;10.780;2023-03-01T14:45:53;13.02;;;7.22;;
45114;SDS011;30877;43.706;10.780;2023-03-01T14:48:21;9.63;;;6.00;;
45114;SDS011;30877;43.706;10.780;2023-03-01T14:50:50;6.80;;;5.13;;
45114;SDS011;30877;43.706;10.780;2023-03-01T14:53:19;7.22;;;5.28;;
45114;SDS011;30877;43.706;10.780;2023-03-01T14:55:52;6.30;;;4.50;;
45114;SDS011;30877;43.706;10.780;2023-03-01T14:58:23;3.47;;;2.75;;
45114;SDS011;30877;43.706;10.780;2023-03-01T15:00:54;3.72;;;2.35;;
45114;SDS011;30877;43.706;10.780;2023-03-01T15:03:25;3.08;;;2.58;;
45114;SDS011;30877;43.706;10.780;2023-03-01T15:05:57;2.38;;;1.90;;
45114;SDS011;30877;43.706;10.780;2023-03-01T15:08:28;2.22;;;1.75;;
45114;SDS011;30877;43.706;10.780;2023-03-01T15:11:02;3.28;;;2.58;;
45114;SDS011;30877;43.706;10.780;2023-03-01T15:13:35;2.55;;;1.90;;
45114;SDS011;30877;43.706;10.780;2023-03-01T15:16:04;2.67;;;1.90;;
45114;SDS011;30877;43.706;10.780;2023-03-01T15:18:36;3.17;;;2.10;;